Time;durP1;ratioP1;P1;durP2;ratioP2;P2;SDS_P1;SDS_P2;PMS_P1;PMS_P2;Temp;Humidity;BMP_temperature;BMP_pressure;BME280_temperature;BME280_humidity;BME280_pressure;Samples;Min_cycle;Max_cycle;Signal;HPM_P1;HPM_P2
2021/05/13 00:02:15;;;;;;;8.90;7.90;;;14.40;45.70;;;;;;10495198;28;20236;-71
2021/05/13 00:07:18;;;;;;;9.07;7.50;;;14.40;45.60;;;;;;10495200;28;20282;-71
2021/05/13 00:12:36;;;;;;;7.70;7.00;;;14.40;45.70;;;;;;10494896;28;20294;-70
2021/05/13 00:17:40;;;;;;;7.17;6.57;;;14.40;45.80;;;;;;10495090;28;20223;-70
2021/05/13 00:22:43;;;;;;;8.57;6.83;;;14.40;45.80;;;;;;10491396;28;20244;-70
2021/05/13 00:27:46;;;;;;;6.97;6.37;;;14.30;45.60;;;;;;10494237;28;20252;-70
2021/05/13 00:32:50;;;;;;;7.70;7.00;;;14.30;45.60;;;;;;10493992;28;20232;-71
2021/05/13 00:37:53;;;;;;;7.43;6.50;;;14.30;45.60;;;;;;10494079;28;20252;-71
2021/05/13 00:42:56;;;;;;;8.43;6.80;;;14.30;45.60;;;;;;10493569;28;20672;-71
2021/05/13 00:48:04;;;;;;;6.60;6.00;;;14.30;45.60;;;;;;10493657;28;20224;-71
2021/05/13 00:53:08;;;;;;;7.10;6.50;;;14.30;45.70;;;;;;10493296;28;20231;-71
2021/05/13 00:58:11;;;;;;;6.83;5.90;;;14.30;45.40;;;;;;10493271;28;20228;-71
2021/05/13 01:03:15;;;;;;;8.10;7.40;;;14.30;45.40;;;;;;10492890;28;20228;-71
2021/05/13 01:08:17;;;;;;;7.23;6.63;;;14.20;45.40;;;;;;10492860;28;20303;-71
2021/05/13 01:13:23;;;;;;;8.07;7.33;;;14.20;45.50;;;;;;10492453;28;20254;-71
2021/05/13 01:18:27;;;;;;;6.90;6.30;;;14.20;45.50;;;;;;10492515;28;20303;-71
2021/05/13 01:23:30;;;;;;;7.10;6.50;;;14.20;45.60;;;;;;10491985;28;20231;-71
2021/05/13 01:28:33;;;;;;;7.67;6.97;;;14.20;46.00;;;;;;10476413;28;20720;-69
2021/05/13 01:33:36;;;;;;;7.53;6.77;;;14.20;45.60;;;;;;10445726;28;20254;-69
2021/05/13 01:38:40;;;;;;;7.77;7.10;;;14.20;45.40;;;;;;10454574;28;20304;-69
2021/05/13 01:43:43;;;;;;;7.87;7.17;;;14.30;45.40;;;;;;10457885;28;20224;-69
2021/05/13 01:48:46;;;;;;;7.20;6.60;;;14.20;45.40;;;;;;10452473;28;20796;-69
2021/05/13 01:53:51;;;;;;;7.70;7.10;;;14.20;45.40;;;;;;10443096;28;20229;-69
2021/05/13 01:58:53;;;;;;;8.20;7.50;;;14.20;45.40;;;;;;10449687;28;20249;-69
2021/05/13 02:03:56;;;;;;;8.37;7.57;;;14.20;45.40;;;;;;10449536;28;20316;-69
2021/05/13 02:09:00;;;;;;;8.10;7.40;;;14.20;45.30;;;;;;10449197;28;20278;-69
2021/05/13 02:14:03;;;;;;;9.00;8.20;;;14.20;45.60;;;;;;10451946;28;20286;-69
2021/05/13 02:19:06;;;;;;;8.97;8.27;;;14.20;45.40;;;;;;10453715;28;20220;-69
2021/05/13 02:24:10;;;;;;;8.83;7.93;;;14.10;45.40;;;;;;10456167;28;20316;-69
2021/05/13 02:29:13;;;;;;;8.63;7.70;;;14.10;45.60;;;;;;10459388;28;20279;-69
2021/05/13 02:34:16;;;;;;;8.50;7.73;;;14.10;45.40;;;;;;10453710;28;20224;-70
2021/05/13 02:39:20;;;;;;;9.67;8.77;;;14.10;45.50;;;;;;10449897;28;20620;-70
2021/05/13 02:44:22;;;;;;;9.77;8.87;;;14.10;45.50;;;;;;10450895;28;20811;-71
2021/05/13 02:49:25;;;;;;;9.13;8.33;;;14.10;45.50;;;;;;10447531;28;20649;-71
2021/05/13 02:54:29;;;;;;;9.17;8.40;;;14.10;45.40;;;;;;10461747;28;20248;-71
2021/05/13 02:59:40;;;;;;;10.50;9.40;;;14.10;45.60;;;;;;10452785;28;20320;-71
2021/05/13 03:04:44;;;;;;;11.17;9.37;;;14.10;45.40;;;;;;10460574;28;20248;-71
2021/05/13 03:09:53;;;;;;;11.00;10.00;;;14.10;45.50;;;;;;10460953;28;20286;-71
2021/05/13 03:14:57;;;;;;;9.97;9.00;;;14.00;45.50;;;;;;10462501;28;20605;-71
2021/05/13 03:20:00;;;;;;;10.33;9.43;;;14.00;45.50;;;;;;10462136;28;20325;-71
2021/05/13 03:25:07;;;;;;;9.70;8.90;;;14.00;45.50;;;;;;10464119;28;20233;-71
2021/05/13 03:30:11;;;;;;;10.00;9.10;;;14.00;45.80;;;;;;10459828;28;20298;-71
2021/05/13 03:35:14;;;;;;;11.37;10.37;;;14.00;45.50;;;;;;10455187;28;20239;-71
2021/05/13 03:40:18;;;;;;;11.47;10.47;;;13.90;45.40;;;;;;10456574;28;20688;-71
2021/05/13 03:45:21;;;;;;;11.30;10.20;;;13.90;45.50;;;;;;10455625;28;20236;-71
2021/05/13 03:50:24;;;;;;;11.13;10.13;;;13.90;45.60;;;;;;10457171;28;20351;-71
2021/05/13 03:55:27;;;;;;;10.13;9.23;;;13.80;45.60;;;;;;10451979;28;20320;-71
2021/05/13 04:00:37;;;;;;;11.20;10.20;;;13.90;45.80;;;;;;10451371;28;20236;-71
2021/05/13 04:05:40;;;;;;;11.97;10.83;;;13.90;45.70;;;;;;10460794;28;20233;-71
2021/05/13 04:10:44;;;;;;;10.93;9.93;;;13.80;45.60;;;;;;10454342;28;20294;-71
2021/05/13 04:15:48;;;;;;;10.83;9.87;;;13.80;45.60;;;;;;10463790;28;20242;-71
2021/05/13 04:20:50;;;;;;;11.27;10.27;;;13.80;45.60;;;;;;10455918;28;20277;-71
2021/05/13 04:25:54;;;;;;;12.57;11.47;;;13.80;45.60;;;;;;10460919;28;20232;-71
2021/05/13 04:30:57;;;;;;;14.73;12.67;;;13.80;45.70;;;;;;10454075;28;20709;-71
2021/05/13 04:36:00;;;;;;;12.83;11.63;;;13.80;45.70;;;;;;10447068;28;20720;-71
2021/05/13 04:41:03;;;;;;;13.90;12.70;;;13.80;45.70;;;;;;10460554;28;20233;-71
2021/05/13 04:46:07;;;;;;;13.70;12.33;;;13.80;46.00;;;;;;10455463;28;20233;-71
2021/05/13 04:51:10;;;;;;;13.90;12.70;;;13.70;46.00;;;;;;10459106;28;20224;-71
2021/05/13 04:56:14;;;;;;;14.43;13.03;;;13.70;46.00;;;;;;10452094;28;20229;-71
2021/05/13 05:01:17;;;;;;;12.97;11.87;;;13.70;46.20;;;;;;10453945;28;20328;-71
2021/05/13 05:06:20;;;;;;;14.43;13.10;;;13.70;46.20;;;;;;10456931;28;20235;-71
2021/05/13 05:11:24;;;;;;;14.33;13.03;;;13.70;46.20;;;;;;10454789;28;20282;-71
2021/05/13 05:16:27;;;;;;;14.40;13.00;;;13.70;46.40;;;;;;10452394;28;20229;-71
2021/05/13 05:21:30;;;;;;;13.47;12.27;;;13.70;46.20;;;;;;10454322;28;20233;-71
2021/05/13 05:26:34;;;;;;;13.23;11.93;;;13.70;46.30;;;;;;10453010;28;20241;-71
2021/05/13 05:31:37;;;;;;;13.47;12.20;;;13.70;46.30;;;;;;10457241;28;20311;-71
2021/05/13 05:36:40;;;;;;;11.43;10.23;;;13.70;46.20;;;;;;10456447;28;20228;-71
2021/05/13 05:41:43;;;;;;;12.43;11.13;;;13.70;46.20;;;;;;10449213;28;20758;-71
2021/05/13 05:46:46;;;;;;;13.10;12.00;;;13.80;46.50;;;;;;10459542;28;20241;-71
2021/05/13 05:51:49;;;;;;;13.47;12.07;;;13.80;46.40;;;;;;10452110;28;20319;-71
2021/05/13 05:56:52;;;;;;;11.83;10.80;;;13.80;46.30;;;;;;10445713;28;20336;-71
2021/05/13 06:01:56;;;;;;;11.30;10.20;;;13.80;46.50;;;;;;10453434;28;20242;-71
2021/05/13 06:06:59;;;;;;;10.53;9.63;;;13.80;46.40;;;;;;10447726;28;20233;-71
2021/05/13 06:12:03;;;;;;;10.40;9.40;;;13.80;46.10;;;;;;10453653;28;20240;-71
2021/05/13 06:17:06;;;;;;;10.00;9.10;;;13.80;46.40;;;;;;10449457;28;20275;-72
2021/05/13 06:22:09;;;;;;;9.27;8.50;;;13.80;46.40;;;;;;10456456;28;20232;-72
2021/05/13 06:27:13;;;;;;;9.77;8.87;;;13.90;46.50;;;;;;10463110;28;20263;-72
2021/05/13 06:32:16;;;;;;;9.90;8.90;;;13.90;46.40;;;;;;10462747;28;20228;-72
2021/05/13 06:37:19;;;;;;;9.20;8.40;;;14.00;46.60;;;;;;10459811;28;20316;-71
2021/05/13 06:42:22;;;;;;;9.70;8.80;;;14.00;46.70;;;;;;10461786;28;20320;-71
2021/05/13 06:47:25;;;;;;;10.33;9.30;;;14.10;46.60;;;;;;10465896;28;20315;-71
2021/05/13 06:52:28;;;;;;;9.30;8.40;;;14.10;46.60;;;;;;10457430;28;20578;-71
2021/05/13 06:57:32;;;;;;;9.83;9.00;;;14.10;46.50;;;;;;10456031;28;20282;-71
2021/05/13 07:02:35;;;;;;;8.70;8.00;;;14.10;46.70;;;;;;10447891;28;20260;-71
2021/05/13 07:07:40;;;;;;;8.20;7.50;;;14.20;46.50;;;;;;10455232;28;20229;-71
2021/05/13 07:12:44;;;;;;;8.13;7.47;;;14.20;46.70;;;;;;10448625;28;20236;-71
2021/05/13 07:18:11;;;;;;;8.30;7.50;;;14.20;46.60;;;;;;10446236;28;20236;-71
2021/05/13 07:23:14;;;;;;;8.20;7.40;;;14.30;46.80;;;;;;10452759;28;20238;-71
2021/05/13 07:28:18;;;;;;;7.77;7.07;;;14.30;46.70;;;;;;10447638;28;20230;-71
2021/05/13 07:33:20;;;;;;;7.90;7.30;;;14.40;46.90;;;;;;10459633;28;20237;-71
2021/05/13 07:38:24;;;;;;;7.93;7.23;;;14.50;47.00;;;;;;10451870;28;20236;-71
2021/05/13 07:43:27;;;;;;;7.70;7.00;;;14.60;46.90;;;;;;10452703;28;20309;-71
2021/05/13 07:48:31;;;;;;;6.90;6.30;;;14.60;46.90;;;;;;10464726;28;20244;-71
2021/05/13 07:53:35;;;;;;;6.97;6.30;;;14.70;46.70;;;;;;10455452;28;20297;-71
2021/05/13 07:58:39;;;;;;;7.10;6.50;;;14.70;46.40;;;;;;10451238;28;20255;-71
2021/05/13 08:03:41;;;;;;;7.73;7.03;;;14.80;46.30;;;;;;10455754;28;20221;-71
2021/05/13 08:08:44;;;;;;;7.00;6.50;;;14.80;46.20;;;;;;10450940;28;20260;-71
2021/05/13 08:13:48;;;;;;;7.47;6.70;;;14.80;46.30;;;;;;10449815;28;20217;-71
2021/05/13 08:18:51;;;;;;;6.80;6.10;;;14.90;46.50;;;;;;10448351;28;20328;-70
2021/05/13 08:23:54;;;;;;;6.90;6.30;;;14.90;46.80;;;;;;10459147;28;20601;-71
2021/05/13 08:28:57;;;;;;;6.27;5.77;;;15.00;46.50;;;;;;10454708;28;20312;-71
2021/05/13 08:34:00;;;;;;;8.13;5.87;;;15.10;46.20;;;;;;10458977;28;20224;-70
2021/05/13 08:39:04;;;;;;;7.00;6.40;;;15.10;46.20;;;;;;10454262;28;20287;-69
2021/05/13 08:44:08;;;;;;;5.07;4.67;;;15.20;46.10;;;;;;10452996;28;20261;-72
2021/05/13 08:49:11;;;;;;;5.77;5.37;;;15.30;46.20;;;;;;10460583;28;20244;-70
2021/05/13 08:54:14;;;;;;;6.53;6.03;;;15.40;46.30;;;;;;10447849;28;23274;-71
2021/05/13 08:59:18;;;;;;;6.60;5.80;;;15.50;46.00;;;;;;10447324;28;20307;-70
2021/05/13 09:04:20;;;;;;;5.57;5.07;;;15.60;45.90;;;;;;10447210;28;20229;-71
2021/05/13 09:09:23;;;;;;;6.03;5.33;;;15.70;46.00;;;;;;10457050;28;20339;-72
2021/05/13 09:14:28;;;;;;;6.20;5.70;;;15.80;45.70;;;;;;10449666;28;20224;-72
2021/05/13 09:19:34;;;;;;;5.30;4.80;;;15.90;45.10;;;;;;10447909;28;20221;-72
2021/05/13 09:24:47;;;;;;;5.53;5.03;;;16.00;45.20;;;;;;10442476;28;20631;-72
2021/05/13 09:30:03;;;;;;;6.73;5.07;;;16.00;45.20;;;;;;10433440;28;20285;-72
2021/05/13 09:35:09;;;;;;;5.03;4.53;;;16.10;46.00;;;;;;10449838;28;20704;-72
2021/05/13 09:40:14;;;;;;;5.77;5.13;;;16.30;45.50;;;;;;10439986;28;20274;-72
2021/05/13 09:45:18;;;;;;;5.20;4.70;;;16.40;45.60;;;;;;10458467;28;20312;-72
2021/05/13 09:50:22;;;;;;;4.90;4.50;;;16.50;45.60;;;;;;10451076;28;20340;-72
2021/05/13 09:55:27;;;;;;;5.40;4.23;;;16.50;44.70;;;;;;10455412;28;20231;-71
2021/05/13 10:00:42;;;;;;;4.27;3.90;;;16.60;44.60;;;;;;10436399;28;20290;-71
2021/05/13 10:05:48;;;;;;;4.53;3.83;;;16.60;43.60;;;;;;10450760;28;20256;-72
2021/05/13 10:10:51;;;;;;;4.20;3.80;;;16.60;44.30;;;;;;10442929;28;20228;-71
2021/05/13 10:15:55;;;;;;;4.30;3.70;;;16.70;44.90;;;;;;10455375;28;20258;-72
2021/05/13 10:21:04;;;;;;;3.73;3.43;;;16.70;44.50;;;;;;10439055;28;20279;-72
2021/05/13 10:26:08;;;;;;;5.60;3.13;;;16.80;44.10;;;;;;10443485;28;20232;-71
2021/05/13 10:31:11;;;;;;;3.80;3.50;;;16.90;44.40;;;;;;10457602;28;20336;-71
2021/05/13 10:36:18;;;;;;;3.50;3.17;;;17.00;44.20;;;;;;10448803;28;20290;-71
2021/05/13 10:41:38;;;;;;;4.67;3.50;;;17.10;43.50;;;;;;10454356;28;20240;-71
2021/05/13 10:46:53;;;;;;;3.90;3.30;;;17.20;43.30;;;;;;10450251;28;20256;-72
2021/05/13 10:51:58;;;;;;;3.83;3.10;;;17.30;42.90;;;;;;10449403;28;20323;-71
2021/05/13 10:57:13;;;;;;;4.30;3.20;;;17.40;43.80;;;;;;10457037;28;20825;-72
2021/05/13 11:02:38;;;;;;;3.60;3.30;;;17.50;42.60;;;;;;10445328;28;20267;-71
2021/05/13 11:07:42;;;;;;;4.17;3.00;;;17.50;42.00;;;;;;10453413;28;20235;-71
2021/05/13 11:12:44;;;;;;;4.13;3.27;;;17.60;43.20;;;;;;10448726;28;20691;-71
2021/05/13 11:18:13;;;;;;;3.40;3.07;;;17.60;43.00;;;;;;10457202;28;20375;-71
2021/05/13 11:23:21;;;;;;;4.33;2.83;;;17.70;42.60;;;;;;10445927;28;20251;-71
2021/05/13 11:28:31;;;;;;;4.13;3.20;;;17.80;41.60;;;;;;10457789;28;20236;-71
2021/05/13 11:33:39;;;;;;;3.03;2.70;;;17.80;41.30;;;;;;10453918;28;20279;-71
2021/05/13 11:38:44;;;;;;;2.90;2.70;;;17.90;41.90;;;;;;10454516;28;20306;-72
2021/05/13 11:43:48;;;;;;;3.03;2.73;;;18.00;42.80;;;;;;10454706;28;20237;-72
2021/05/13 11:48:53;;;;;;;5.00;4.60;;;18.00;42.00;;;;;;10456515;28;20708;-72
2021/05/13 11:53:57;;;;;;;5.30;4.90;;;18.00;42.70;;;;;;10466243;28;20319;-72
2021/05/13 11:59:00;;;;;;;5.27;4.30;;;18.00;43.30;;;;;;10459472;28;20770;-73
2021/05/13 12:04:11;;;;;;;5.27;4.77;;;18.00;42.90;;;;;;10455119;28;20224;-72
2021/05/13 12:09:14;;;;;;;6.13;5.60;;;17.90;43.30;;;;;;10459378;28;20252;-72
2021/05/13 12:14:23;;;;;;;5.33;4.93;;;17.80;43.10;;;;;;10451115;28;20229;-72
2021/05/13 12:19:28;;;;;;;6.80;5.20;;;17.70;43.30;;;;;;10452639;28;21389;-72
2021/05/13 12:24:32;;;;;;;5.87;5.17;;;17.60;43.40;;;;;;10449542;28;20235;-72
2021/05/13 12:29:35;;;;;;;5.27;4.77;;;17.60;43.70;;;;;;10462053;28;20225;-72
2021/05/13 12:34:42;;;;;;;4.37;4.07;;;17.60;43.90;;;;;;10448023;28;20701;-72
2021/05/13 12:39:45;;;;;;;4.37;3.97;;;17.60;43.80;;;;;;10443127;28;20229;-71
2021/05/13 12:44:48;;;;;;;4.73;4.33;;;17.70;43.60;;;;;;10455174;28;20228;-71
2021/05/13 12:50:01;;;;;;;4.53;4.13;;;17.80;43.60;;;;;;10448346;28;20229;-71
2021/05/13 12:55:12;;;;;;;4.43;4.03;;;17.90;42.50;;;;;;10451387;28;20217;-71
2021/05/13 13:00:16;;;;;;;4.20;3.10;;;18.00;41.80;;;;;;10457702;28;20311;-71
2021/05/13 13:05:21;;;;;;;4.87;4.47;;;18.00;42.50;;;;;;10455251;28;20217;-71
2021/05/13 13:10:31;;;;;;;4.40;3.80;;;18.00;42.30;;;;;;10441778;28;20257;-71
2021/05/13 13:15:37;;;;;;;3.93;3.63;;;18.10;42.00;;;;;;10456398;28;20255;-71
2021/05/13 13:20:41;;;;;;;4.07;3.77;;;18.00;42.10;;;;;;10454182;28;20220;-71
2021/05/13 13:25:45;;;;;;;3.80;3.50;;;18.00;41.80;;;;;;10454446;28;20641;-72
2021/05/13 13:30:51;;;;;;;3.03;2.83;;;18.00;41.90;;;;;;10449311;28;20339;-71
2021/05/13 13:35:55;;;;;;;4.27;2.80;;;17.90;41.70;;;;;;10448533;28;20234;-71
2021/05/13 13:40:59;;;;;;;3.47;3.17;;;18.00;41.80;;;;;;10446491;28;20233;-71
2021/05/13 13:46:02;;;;;;;3.73;3.43;;;18.00;41.80;;;;;;10448817;28;20229;-71
2021/05/13 13:51:06;;;;;;;4.10;3.80;;;18.10;42.00;;;;;;10448726;28;20323;-71
2021/05/13 13:56:09;;;;;;;4.47;3.80;;;18.10;41.40;;;;;;10449745;28;20225;-71
2021/05/13 14:01:12;;;;;;;3.53;3.20;;;18.10;41.60;;;;;;10451180;28;20263;-71
2021/05/13 14:06:15;;;;;;;3.47;3.17;;;18.10;41.50;;;;;;10441495;28;20319;-71
2021/05/13 14:11:18;;;;;;;3.47;3.17;;;18.20;41.40;;;;;;10446775;28;20260;-71
2021/05/13 14:16:21;;;;;;;3.10;2.90;;;18.20;41.70;;;;;;10448906;28;20237;-72
2021/05/13 14:21:24;;;;;;;4.07;3.67;;;18.20;41.80;;;;;;10452610;28;20888;-73
2021/05/13 14:26:27;;;;;;;3.00;2.60;;;18.10;41.90;;;;;;10450055;28;20773;-73
2021/05/13 14:31:30;;;;;;;5.17;2.83;;;17.90;41.50;;;;;;10437395;28;20228;-72
2021/05/13 14:36:34;;;;;;;2.27;2.07;;;17.80;41.60;;;;;;10452772;28;20225;-72
2021/05/13 14:41:37;;;;;;;2.40;2.20;;;17.60;41.20;;;;;;10454009;28;20239;-71
2021/05/13 14:46:40;;;;;;;2.60;2.40;;;17.50;41.60;;;;;;10454562;28;20248;-72
2021/05/13 14:51:44;;;;;;;2.70;2.50;;;17.30;41.90;;;;;;10453354;28;20225;-72
2021/05/13 14:56:53;;;;;;;2.03;1.83;;;17.20;42.20;;;;;;10459200;28;20255;-71
2021/05/13 15:01:58;;;;;;;2.93;1.73;;;17.10;42.20;;;;;;10460874;28;20311;-72
2021/05/13 15:07:02;;;;;;;2.13;1.70;;;17.10;42.60;;;;;;10450061;28;20343;-72
2021/05/13 15:12:06;;;;;;;1.40;1.40;;;17.10;42.40;;;;;;10460780;28;20237;-72
2021/05/13 15:17:09;;;;;;;1.77;1.30;;;17.20;41.90;;;;;;10456718;28;20260;-72
2021/05/13 15:22:14;;;;;;;2.70;1.53;;;17.20;41.40;;;;;;10480745;28;20229;-72
2021/05/13 15:27:16;;;;;;;1.83;1.30;;;17.20;41.60;;;;;;10458249;28;20286;-72
2021/05/13 15:32:19;;;;;;;1.70;1.60;;;17.10;41.40;;;;;;10455474;28;20291;-72
2021/05/13 15:37:24;;;;;;;2.03;1.50;;;17.00;41.80;;;;;;10454797;28;20731;-72
2021/05/13 15:42:29;;;;;;;1.40;1.30;;;16.90;41.40;;;;;;10456479;28;20228;-71
2021/05/13 15:47:32;;;;;;;1.17;1.17;;;16.80;42.00;;;;;;10454855;28;20717;-71
2021/05/13 15:52:37;;;;;;;1.40;1.30;;;16.70;42.00;;;;;;10455001;28;20233;-72
2021/05/13 15:57:40;;;;;;;1.30;1.30;;;16.70;41.90;;;;;;10467035;28;20259;-71
2021/05/13 16:02:42;;;;;;;1.23;1.13;;;16.70;42.20;;;;;;10465104;28;20274;-71
2021/05/13 16:07:46;;;;;;;1.37;1.20;;;16.70;42.00;;;;;;10453717;28;20229;-71
2021/05/13 16:12:55;;;;;;;1.77;1.30;;;16.80;42.10;;;;;;10453619;28;20260;-71
2021/05/13 16:17:57;;;;;;;1.57;1.47;;;16.80;41.90;;;;;;10453613;28;20245;-71
2021/05/13 16:23:01;;;;;;;2.00;1.60;;;16.80;42.00;;;;;;10453301;28;20638;-72
2021/05/13 16:28:04;;;;;;;1.60;1.50;;;16.80;42.10;;;;;;10452690;28;20233;-71
2021/05/13 16:33:07;;;;;;;3.03;1.77;;;16.80;42.30;;;;;;10452670;28;20233;-71
2021/05/13 16:38:10;;;;;;;3.27;3.00;;;16.70;42.20;;;;;;10452626;28;20233;-72
2021/05/13 16:43:13;;;;;;;2.57;2.07;;;16.60;42.50;;;;;;10452296;28;20316;-72
2021/05/13 16:48:17;;;;;;;3.17;2.93;;;16.60;42.70;;;;;;10450754;28;20229;-71
2021/05/13 16:53:21;;;;;;;3.87;2.87;;;16.50;42.40;;;;;;10452214;28;20249;-72
2021/05/13 16:58:25;;;;;;;2.10;2.00;;;16.40;42.50;;;;;;10451538;28;20240;-71
2021/05/13 17:03:28;;;;;;;3.50;3.20;;;16.30;42.60;;;;;;10451887;28;20283;-71
2021/05/13 17:08:31;;;;;;;2.03;1.93;;;16.30;42.90;;;;;;10450684;28;20592;-72
2021/05/13 17:13:34;;;;;;;2.23;2.03;;;16.30;43.30;;;;;;10451390;28;20228;-71
2021/05/13 17:18:37;;;;;;;2.53;2.33;;;16.30;43.30;;;;;;10451335;28;20302;-71
2021/05/13 17:23:41;;;;;;;2.40;2.30;;;16.30;43.30;;;;;;10451518;28;20252;-71
2021/05/13 17:28:48;;;;;;;2.10;2.00;;;16.30;43.40;;;;;;10450245;28;20607;-72
2021/05/13 17:33:55;;;;;;;2.03;1.93;;;16.30;43.00;;;;;;10448338;28;20237;-71
2021/05/13 17:38:59;;;;;;;1.73;1.63;;;16.30;42.90;;;;;;10447503;28;20245;-71
2021/05/13 17:44:02;;;;;;;2.53;1.80;;;16.30;42.90;;;;;;10447067;28;20671;-71
2021/05/13 17:49:05;;;;;;;3.00;2.10;;;16.20;42.70;;;;;;10430295;28;20269;-71
2021/05/13 17:54:12;;;;;;;3.13;2.50;;;16.10;42.70;;;;;;10406473;28;20236;-71
2021/05/13 17:59:14;;;;;;;2.30;2.10;;;16.00;43.10;;;;;;10437018;28;20631;-71
2021/05/13 18:04:19;;;;;;;2.37;1.70;;;15.90;43.20;;;;;;10448080;28;20241;-71
2021/05/13 18:09:23;;;;;;;2.20;2.03;;;15.80;43.30;;;;;;10448925;28;20685;-71
2021/05/13 18:14:26;;;;;;;1.87;1.77;;;15.80;43.50;;;;;;10447873;28;20651;-71
2021/05/13 18:19:29;;;;;;;1.93;1.80;;;15.90;43.50;;;;;;10419621;28;20235;-71
2021/05/13 18:24:32;;;;;;;1.90;1.80;;;15.90;43.40;;;;;;10408261;28;20291;-71
2021/05/13 18:29:36;;;;;;;1.77;1.67;;;15.90;43.60;;;;;;10407688;28;20256;-71
2021/05/13 18:34:39;;;;;;;2.27;1.60;;;15.80;43.20;;;;;;10435750;28;20263;-71
2021/05/13 18:39:44;;;;;;;1.77;1.67;;;15.80;43.30;;;;;;10429406;28;20231;-71
2021/05/13 18:44:47;;;;;;;2.03;1.93;;;15.80;43.40;;;;;;10441618;28;20260;-72
2021/05/13 18:49:50;;;;;;;2.23;1.77;;;15.70;43.60;;;;;;10448253;28;20229;-72
2021/05/13 18:54:53;;;;;;;2.70;2.50;;;15.60;43.70;;;;;;10445664;28;20259;-72
2021/05/13 18:59:56;;;;;;;2.43;2.23;;;15.70;43.80;;;;;;10433869;28;20257;-71
2021/05/13 19:04:59;;;;;;;2.93;2.73;;;15.70;43.80;;;;;;10437677;28;20311;-72
2021/05/13 19:10:04;;;;;;;2.33;2.13;;;15.70;43.90;;;;;;10439638;28;20320;-72
2021/05/13 19:15:08;;;;;;;2.00;1.90;;;15.70;44.20;;;;;;10440247;28;20229;-72
2021/05/13 19:20:12;;;;;;;2.17;2.03;;;15.70;44.10;;;;;;10438335;28;20332;-71
2021/05/13 19:25:16;;;;;;;3.10;1.90;;;15.70;43.60;;;;;;10425825;28;20245;-73
2021/05/13 19:30:29;;;;;;;2.43;1.60;;;15.60;43.80;;;;;;10437384;28;20225;-73
2021/05/13 19:35:32;;;;;;;2.20;2.00;;;15.50;43.70;;;;;;10438758;28;20251;-73
2021/05/13 19:40:36;;;;;;;2.10;2.00;;;15.50;43.70;;;;;;10451192;28;20261;-73
2021/05/13 19:45:39;;;;;;;2.60;2.20;;;15.50;43.90;;;;;;10451827;28;20231;-73
2021/05/13 19:50:44;;;;;;;2.57;1.97;;;15.40;43.70;;;;;;10441444;28;20225;-72
2021/05/13 19:55:49;;;;;;;2.00;1.90;;;15.40;43.80;;;;;;10414381;28;20237;-73
2021/05/13 20:00:55;;;;;;;2.33;1.70;;;15.30;43.90;;;;;;10445557;28;20853;-73
2021/05/13 20:06:05;;;;;;;2.10;1.90;;;15.20;44.50;;;;;;10451850;28;20228;-71
2021/05/13 20:11:19;;;;;;;1.90;1.80;;;15.10;44.40;;;;;;10444602;28;20347;-72
2021/05/13 20:16:21;;;;;;;1.73;1.63;;;15.10;44.40;;;;;;10443949;28;20244;-71
2021/05/13 20:21:25;;;;;;;1.70;1.60;;;15.10;44.40;;;;;;10441315;28;20243;-71
2021/05/13 20:26:37;;;;;;;2.17;1.83;;;15.10;44.40;;;;;;10455784;28;20231;-71
2021/05/13 20:31:40;;;;;;;2.73;1.80;;;15.00;44.30;;;;;;10449373;28;20228;-71
2021/05/13 20:36:43;;;;;;;1.70;1.60;;;15.00;44.30;;;;;;10446227;28;20637;-71
2021/05/13 20:41:47;;;;;;;2.10;2.00;;;14.90;44.30;;;;;;10446330;28;20244;-71
2021/05/13 20:46:50;;;;;;;2.47;2.00;;;14.80;44.20;;;;;;10445472;28;20320;-71
2021/05/13 20:52:01;;;;;;;4.33;3.10;;;14.80;44.20;;;;;;10457308;28;20232;-71
2021/05/13 20:57:19;;;;;;;2.67;2.47;;;14.70;44.40;;;;;;10443378;28;20326;-71
2021/05/13 21:02:22;;;;;;;2.87;2.27;;;14.70;44.70;;;;;;10446190;28;20307;-71
2021/05/13 21:07:30;;;;;;;1.97;1.70;;;14.60;44.10;;;;;;10449366;28;20232;-72
2021/05/13 21:12:42;;;;;;;3.07;1.50;;;14.60;44.40;;;;;;10449247;28;20247;-72
2021/05/13 21:23:46;;;;;;;1.70;1.60;;;14.50;44.40;;;;;;10436994;28;20323;-72
2021/05/13 21:28:54;;;;;;;1.50;1.40;;;14.60;44.70;;;;;;10441782;28;20252;-72
2021/05/13 21:33:57;;;;;;;3.27;1.20;;;14.60;44.50;;;;;;10441405;28;20225;-72
2021/05/13 21:38:59;;;;;;;1.30;1.20;;;14.50;44.20;;;;;;10427790;28;20233;-70
2021/05/13 21:44:04;;;;;;;1.00;1.00;;;14.50;44.40;;;;;;10444087;28;20232;-70
2021/05/13 21:49:09;;;;;;;1.03;1.03;;;14.50;44.70;;;;;;10433444;28;20314;-70
2021/05/13 21:54:12;;;;;;;1.00;1.00;;;14.40;44.40;;;;;;10438692;28;20248;-70
2021/05/13 21:59:15;;;;;;;1.80;1.07;;;14.30;44.50;;;;;;10433279;28;20228;-70
2021/05/13 22:04:18;;;;;;;1.03;0.80;;;14.30;44.90;;;;;;10440750;28;20295;-70
2021/05/13 22:09:21;;;;;;;0.90;0.90;;;14.30;44.80;;;;;;10433264;28;20749;-69
2021/05/13 22:14:25;;;;;;;0.90;0.90;;;14.20;44.80;;;;;;10440267;28;20312;-69
2021/05/13 22:19:28;;;;;;;1.00;1.00;;;14.30;45.00;;;;;;10444911;28;20276;-69
2021/05/13 22:24:38;;;;;;;1.00;1.00;;;14.30;44.80;;;;;;10456653;28;20315;-70
2021/05/13 22:29:43;;;;;;;1.10;1.00;;;14.30;44.90;;;;;;10446779;28;20920;-70
2021/05/13 22:34:46;;;;;;;2.00;1.00;;;14.20;45.10;;;;;;10454828;28;20311;-69
2021/05/13 22:39:50;;;;;;;1.03;1.03;;;14.20;44.90;;;;;;10436670;28;20311;-69
2021/05/13 22:44:54;;;;;;;1.07;1.07;;;14.20;44.90;;;;;;10450478;28;20304;-69
2021/05/13 22:49:58;;;;;;;1.17;1.07;;;14.20;45.20;;;;;;10454780;28;20329;-69
2021/05/13 22:55:10;;;;;;;1.33;0.90;;;14.20;45.00;;;;;;10441255;28;20225;-69
2021/05/13 23:00:15;;;;;;;1.03;1.03;;;14.20;45.00;;;;;;10439108;28;20229;-70
2021/05/13 23:05:19;;;;;;;0.90;0.90;;;14.20;45.10;;;;;;10446755;28;20255;-70
2021/05/13 23:10:23;;;;;;;1.40;1.30;;;14.20;45.10;;;;;;10445623;28;20237;-70
2021/05/13 23:15:26;;;;;;;1.63;1.40;;;14.20;45.10;;;;;;10453541;28;20637;-69
2021/05/13 23:20:29;;;;;;;1.50;1.40;;;14.10;45.40;;;;;;10454648;28;20740;-69
2021/05/13 23:25:32;;;;;;;1.37;1.30;;;14.10;45.40;;;;;;10455681;28;20739;-70
2021/05/13 23:30:36;;;;;;;1.60;1.50;;;14.10;45.60;;;;;;10455429;28;20248;-70
2021/05/13 23:35:39;;;;;;;1.57;1.47;;;14.10;45.60;;;;;;10450181;28;20310;-69
2021/05/13 23:40:41;;;;;;;1.33;1.23;;;14.10;45.60;;;;;;10456937;28;20877;-70
2021/05/13 23:45:45;;;;;;;1.50;1.40;;;14.10;45.60;;;;;;10457203;28;20253;-69
2021/05/13 23:50:48;;;;;;;1.60;1.50;;;14.10;45.60;;;;;;10452583;28;20228;-69
2021/05/13 23:55:51;;;;;;;1.60;1.50;;;14.10;45.40;;;;;;10458345;28;20728;-70
